Time;durP1;ratioP1;P1;durP2;ratioP2;P2;SDS_P1;SDS_P2;PMS_P1;PMS_P2;Temp;Humidity;BMP_temperature;BMP_pressure;BME280_temperature;BME280_humidity;BME280_pressure;Samples;Min_cycle;Max_cycle;Signal;HPM_P1;HPM_P2
2021/03/23 00:01:02;;;;;;;6.95;3.13;;;5.90;91.70;;;;;;5021527;28;20053;-76
2021/03/23 00:03:31;;;;;;;6.13;2.33;;;5.90;91.70;;;;;;5013945;28;20030;-76
2021/03/23 00:05:58;;;;;;;8.82;2.90;;;5.90;92.10;;;;;;5024662;28;20864;-76
2021/03/23 00:08:32;;;;;;;5.93;2.58;;;5.80;91.80;;;;;;5018754;28;20034;-76
2021/03/23 00:11:01;;;;;;;6.13;2.67;;;5.90;91.90;;;;;;5021648;28;20079;-76
2021/03/23 00:13:26;;;;;;;5.57;2.40;;;5.80;91.90;;;;;;5023937;28;20116;-76
2021/03/23 00:15:52;;;;;;;4.97;2.33;;;5.80;91.90;;;;;;5019620;28;20220;-76
2021/03/23 00:18:19;;;;;;;6.03;2.17;;;5.80;91.90;;;;;;5022618;28;20441;-76
2021/03/23 00:20:46;;;;;;;5.65;1.38;;;5.90;91.90;;;;;;5022944;28;20479;-76
2021/03/23 00:23:12;;;;;;;3.42;2.08;;;5.80;91.90;;;;;;5016450;28;20064;-77
2021/03/23 00:25:38;;;;;;;4.90;2.13;;;5.80;91.90;;;;;;5024368;28;20044;-76
2021/03/23 00:28:05;;;;;;;3.65;1.60;;;5.80;92.00;;;;;;5018650;28;20077;-76
2021/03/23 00:30:32;;;;;;;3.30;1.92;;;5.90;92.00;;;;;;5025824;28;20050;-76
2021/03/23 00:32:58;;;;;;;5.32;2.80;;;5.80;92.00;;;;;;5025224;28;20048;-76
2021/03/23 00:35:24;;;;;;;4.90;2.33;;;5.80;92.10;;;;;;5024567;28;20038;-75
2021/03/23 00:37:55;;;;;;;6.07;2.47;;;5.80;92.20;;;;;;5020361;28;20048;-75
2021/03/23 00:40:27;;;;;;;5.13;2.63;;;5.80;92.10;;;;;;5023557;28;20092;-75
2021/03/23 00:42:55;;;;;;;5.82;2.17;;;5.90;92.30;;;;;;5017722;28;20041;-75
2021/03/23 00:45:23;;;;;;;4.00;1.92;;;5.80;92.30;;;;;;5023783;28;20050;-75
2021/03/23 00:47:48;;;;;;;4.97;2.70;;;5.80;92.20;;;;;;5028107;28;20132;-75
2021/03/23 00:50:14;;;;;;;3.88;1.70;;;5.80;92.30;;;;;;5016748;28;20136;-76
2021/03/23 00:52:40;;;;;;;5.63;2.30;;;5.80;92.30;;;;;;5027253;28;20503;-76
2021/03/23 00:55:08;;;;;;;4.35;1.92;;;5.90;92.30;;;;;;5023070;28;20124;-76
2021/03/23 00:57:34;;;;;;;3.70;1.80;;;5.90;92.30;;;;;;5029142;28;20041;-76
2021/03/23 01:00:00;;;;;;;7.78;2.50;;;5.80;92.30;;;;;;5022820;28;20042;-76
2021/03/23 01:02:25;;;;;;;4.43;2.72;;;5.80;92.30;;;;;;5027065;28;20068;-76
2021/03/23 01:04:51;;;;;;;7.03;3.22;;;5.90;92.40;;;;;;5022205;28;20057;-75
2021/03/23 01:07:17;;;;;;;4.88;2.72;;;5.90;92.50;;;;;;5038222;28;20448;-75
2021/03/23 01:09:43;;;;;;;3.00;2.17;;;5.80;92.60;;;;;;5023074;28;20623;-75
2021/03/23 01:12:10;;;;;;;5.30;2.80;;;5.80;92.60;;;;;;5018670;28;20336;-75
2021/03/23 01:14:38;;;;;;;5.93;2.97;;;5.80;92.50;;;;;;5019545;28;20120;-77
2021/03/23 01:17:05;;;;;;;4.30;2.45;;;5.80;92.60;;;;;;5021449;28;20037;-76
2021/03/23 01:19:31;;;;;;;4.80;2.53;;;5.80;92.50;;;;;;5019837;28;20461;-76
2021/03/23 01:21:57;;;;;;;5.78;3.30;;;5.80;92.60;;;;;;5027353;28;20107;-76
2021/03/23 01:24:23;;;;;;;6.40;2.88;;;5.80;92.60;;;;;;5019987;28;20098;-76
2021/03/23 01:26:50;;;;;;;6.32;2.63;;;5.90;92.60;;;;;;5024144;28;20038;-76
2021/03/23 01:29:15;;;;;;;6.85;3.42;;;5.80;92.60;;;;;;5023332;28;20508;-76
2021/03/23 01:31:41;;;;;;;4.38;2.65;;;5.90;92.70;;;;;;5033043;28;20053;-76
2021/03/23 01:34:07;;;;;;;6.55;3.03;;;5.90;92.80;;;;;;5021803;28;20057;-76
2021/03/23 01:36:33;;;;;;;4.70;3.17;;;5.80;92.80;;;;;;5016263;28;20075;-76
2021/03/23 01:38:59;;;;;;;4.85;2.95;;;5.80;92.70;;;;;;5023610;28;20046;-76
2021/03/23 01:41:25;;;;;;;6.30;3.65;;;5.80;92.90;;;;;;5019664;28;20231;-76
2021/03/23 01:43:52;;;;;;;5.10;2.85;;;5.90;92.90;;;;;;5017513;28;20057;-76
2021/03/23 01:46:47;;;;;;;7.00;3.50;;;5.90;92.80;;;;;;5034760;28;20064;-76
2021/03/23 01:49:28;;;;;;;5.90;3.20;;;5.90;92.80;;;;;;5023758;28;20112;-76
2021/03/23 01:51:57;;;;;;;5.10;3.28;;;5.90;92.90;;;;;;5015989;28;20033;-76
2021/03/23 01:54:28;;;;;;;6.28;3.40;;;5.80;92.90;;;;;;5019976;28;20029;-76
2021/03/23 01:56:59;;;;;;;7.32;3.25;;;5.90;92.90;;;;;;5023537;28;20049;-76
2021/03/23 01:59:26;;;;;;;6.82;3.13;;;5.90;92.90;;;;;;5026986;28;20053;-76
2021/03/23 02:01:53;;;;;;;5.38;2.97;;;5.80;93.00;;;;;;5017592;28;20372;-78
2021/03/23 02:04:19;;;;;;;7.65;3.58;;;5.80;93.00;;;;;;5020273;28;20041;-77
2021/03/23 02:06:48;;;;;;;6.30;4.15;;;5.80;93.00;;;;;;5020921;28;20049;-76
2021/03/23 02:09:25;;;;;;;6.22;3.40;;;5.80;92.90;;;;;;5025283;28;20166;-76
2021/03/23 02:11:54;;;;;;;9.13;3.67;;;5.70;92.80;;;;;;5012677;28;20042;-76
2021/03/23 02:14:24;;;;;;;4.88;3.72;;;5.60;92.80;;;;;;5019815;28;20041;-76
2021/03/23 02:16:50;;;;;;;7.60;3.47;;;5.60;92.90;;;;;;5019203;28;20042;-76
2021/03/23 02:19:21;;;;;;;7.63;4.30;;;5.50;92.90;;;;;;5022595;28;20095;-76
2021/03/23 02:21:47;;;;;;;6.30;3.97;;;5.50;92.90;;;;;;5020168;28;20413;-76
2021/03/23 02:24:14;;;;;;;6.22;3.20;;;5.40;92.90;;;;;;5021905;28;20088;-76
2021/03/23 02:26:40;;;;;;;6.55;4.35;;;5.30;93.10;;;;;;5024766;28;20057;-76
2021/03/23 02:29:17;;;;;;;8.52;4.43;;;5.20;92.80;;;;;;5020904;28;20103;-76
2021/03/23 02:31:43;;;;;;;5.78;4.05;;;5.20;92.80;;;;;;5021666;28;20057;-76
2021/03/23 02:34:11;;;;;;;7.43;3.95;;;5.10;92.90;;;;;;5012833;28;20034;-76
2021/03/23 02:36:39;;;;;;;6.60;4.07;;;5.00;93.00;;;;;;5023642;28;20045;-76
2021/03/23 02:39:08;;;;;;;9.25;4.15;;;5.00;93.10;;;;;;5015180;28;20034;-76
2021/03/23 02:41:35;;;;;;;10.93;3.97;;;4.90;93.10;;;;;;5021012;28;20045;-76
2021/03/23 02:44:00;;;;;;;7.25;4.22;;;4.90;93.20;;;;;;5016019;28;20049;-76
2021/03/23 02:46:27;;;;;;;6.28;4.88;;;4.80;93.20;;;;;;5022992;28;20045;-76
2021/03/23 02:48:52;;;;;;;7.80;4.82;;;4.70;93.30;;;;;;5015225;28;20060;-76
2021/03/23 02:51:19;;;;;;;9.90;5.43;;;4.70;93.30;;;;;;5019778;28;20481;-77
2021/03/23 02:53:45;;;;;;;10.68;5.25;;;4.60;93.40;;;;;;5019687;28;20611;-77
2021/03/23 02:56:11;;;;;;;6.82;5.18;;;4.60;93.50;;;;;;5019528;28;20040;-77
2021/03/23 02:58:38;;;;;;;8.73;5.35;;;4.50;93.50;;;;;;5012177;28;20084;-77
2021/03/23 03:01:05;;;;;;;10.60;5.47;;;4.40;93.40;;;;;;5026925;28;20073;-77
2021/03/23 03:03:31;;;;;;;7.95;4.88;;;4.40;93.50;;;;;;5019774;28;20037;-77
2021/03/23 03:05:57;;;;;;;9.32;5.10;;;4.30;93.50;;;;;;5019343;28;20045;-77
2021/03/23 03:08:23;;;;;;;10.93;5.18;;;4.20;93.50;;;;;;5038749;28;20050;-77
2021/03/23 03:10:51;;;;;;;8.48;4.68;;;4.20;93.60;;;;;;5014312;28;20046;-77
2021/03/23 03:13:21;;;;;;;8.15;5.28;;;4.10;93.50;;;;;;5025514;28;20371;-77
2021/03/23 03:15:47;;;;;;;10.82;6.10;;;4.00;93.50;;;;;;5017252;28;20049;-77
2021/03/23 03:18:13;;;;;;;8.02;5.38;;;3.90;93.60;;;;;;5019303;28;20042;-77
2021/03/23 03:20:39;;;;;;;12.43;6.10;;;3.90;93.60;;;;;;5029697;28;20099;-77
2021/03/23 03:23:05;;;;;;;9.00;5.40;;;3.80;93.70;;;;;;5017670;28;20061;-77
2021/03/23 03:25:31;;;;;;;12.52;6.95;;;3.80;93.80;;;;;;5019656;28;20065;-76
2021/03/23 03:27:57;;;;;;;11.35;7.25;;;3.70;93.80;;;;;;5022718;28;20417;-76
2021/03/23 03:30:26;;;;;;;13.18;8.20;;;3.70;93.90;;;;;;5020053;28;20046;-76
2021/03/23 03:32:53;;;;;;;13.27;9.10;;;3.70;94.20;;;;;;5023965;28;20452;-76
2021/03/23 03:35:22;;;;;;;12.02;8.70;;;3.70;94.50;;;;;;5021189;28;20045;-76
2021/03/23 03:37:48;;;;;;;13.10;9.60;;;3.70;94.40;;;;;;5029528;28;20045;-76
2021/03/23 03:40:23;;;;;;;14.80;9.57;;;3.70;94.50;;;;;;5013012;28;20034;-76
2021/03/23 03:42:50;;;;;;;15.38;9.95;;;3.70;94.60;;;;;;5029246;28;20033;-76
2021/03/23 03:45:16;;;;;;;14.75;10.10;;;3.80;95.00;;;;;;5023675;28;20496;-76
2021/03/23 03:47:42;;;;;;;16.08;10.45;;;3.90;95.10;;;;;;5027824;28;20046;-76
2021/03/23 03:50:08;;;;;;;18.05;11.00;;;4.00;95.10;;;;;;5033052;28;20038;-76
2021/03/23 03:52:34;;;;;;;18.95;11.52;;;4.10;95.20;;;;;;5023407;28;20053;-76
2021/03/23 03:55:00;;;;;;;16.48;11.52;;;4.10;95.30;;;;;;5024156;28;20083;-76
2021/03/23 03:57:26;;;;;;;18.15;12.02;;;4.30;95.50;;;;;;5019738;28;20149;-76
2021/03/23 03:59:53;;;;;;;21.00;12.65;;;4.40;95.60;;;;;;5026501;28;20045;-76
2021/03/23 04:02:18;;;;;;;15.23;11.50;;;4.40;95.40;;;;;;5019929;28;20042;-76
2021/03/23 04:04:45;;;;;;;20.15;11.52;;;4.50;95.20;;;;;;5027380;28;20048;-76
2021/03/23 04:07:11;;;;;;;19.63;11.40;;;4.60;95.30;;;;;;5020725;28;20149;-76
2021/03/23 04:09:37;;;;;;;14.30;11.00;;;4.60;95.20;;;;;;5030053;28;20109;-76
2021/03/23 04:12:06;;;;;;;14.95;10.57;;;4.60;95.10;;;;;;5024090;28;20178;-76
2021/03/23 04:14:32;;;;;;;16.75;11.20;;;4.70;95.00;;;;;;5027251;28;20048;-77
2021/03/23 04:16:57;;;;;;;15.60;10.55;;;4.70;94.90;;;;;;5021779;28;20554;-76
2021/03/23 04:19:23;;;;;;;18.55;11.73;;;4.70;94.80;;;;;;5026911;28;20049;-76
2021/03/23 04:21:49;;;;;;;15.52;10.20;;;4.70;94.80;;;;;;5026876;28;20045;-76
2021/03/23 04:24:15;;;;;;;17.80;12.43;;;4.60;94.90;;;;;;5022402;28;20041;-78
2021/03/23 04:26:41;;;;;;;16.73;11.43;;;4.60;94.80;;;;;;5018508;28;20045;-78
2021/03/23 04:29:07;;;;;;;18.70;11.93;;;4.70;94.80;;;;;;5023371;28;20118;-78
2021/03/23 04:31:36;;;;;;;15.02;11.02;;;4.70;94.80;;;;;;5027393;28;20029;-77
2021/03/23 04:34:03;;;;;;;16.48;11.85;;;4.70;94.70;;;;;;5022830;28;20045;-78
2021/03/23 04:36:29;;;;;;;18.92;12.27;;;4.60;94.60;;;;;;5029097;28;20029;-77
2021/03/23 04:38:54;;;;;;;17.40;12.18;;;4.60;94.60;;;;;;5022870;28;20041;-78
2021/03/23 04:41:21;;;;;;;16.25;12.07;;;4.60;94.60;;;;;;5030442;28;20033;-78
2021/03/23 04:43:50;;;;;;;16.58;11.68;;;4.70;94.60;;;;;;5018795;28;20086;-77
2021/03/23 04:46:23;;;;;;;17.77;12.45;;;4.70;94.60;;;;;;5029789;28;20038;-77
2021/03/23 04:48:49;;;;;;;18.95;12.02;;;4.70;94.60;;;;;;5021102;28;20431;-76
2021/03/23 04:51:16;;;;;;;16.95;12.20;;;4.70;94.50;;;;;;5028761;28;20030;-76
2021/03/23 04:53:42;;;;;;;23.80;14.23;;;4.70;94.40;;;;;;5009402;28;20057;-77
2021/03/23 04:56:22;;;;;;;23.77;14.05;;;4.70;94.50;;;;;;5028820;28;20037;-77
2021/03/23 04:58:49;;;;;;;16.05;12.32;;;4.70;94.50;;;;;;5021954;28;20437;-77
2021/03/23 05:01:16;;;;;;;18.30;12.32;;;4.70;94.60;;;;;;5021414;28;20034;-77
2021/03/23 05:03:42;;;;;;;17.73;12.02;;;4.80;94.50;;;;;;5024764;28;20393;-77
2021/03/23 05:06:09;;;;;;;18.42;12.25;;;4.80;94.40;;;;;;5019244;28;20061;-77
2021/03/23 05:08:37;;;;;;;16.85;11.82;;;4.80;94.30;;;;;;5015817;28;20104;-77
2021/03/23 05:11:04;;;;;;;17.50;11.07;;;4.80;94.30;;;;;;5028379;28;20071;-77
2021/03/23 05:13:30;;;;;;;16.02;12.02;;;4.90;94.20;;;;;;5022849;28;20041;-77
2021/03/23 05:15:56;;;;;;;19.50;11.90;;;4.90;94.20;;;;;;5026024;28;20041;-77
2021/03/23 05:18:22;;;;;;;18.48;11.50;;;4.90;94.10;;;;;;5021914;28;20100;-77
2021/03/23 05:20:48;;;;;;;18.60;10.68;;;4.90;94.10;;;;;;5016224;28;20549;-77
2021/03/23 05:23:14;;;;;;;17.75;11.13;;;5.00;94.10;;;;;;5019012;28;20445;-77
2021/03/23 05:25:43;;;;;;;17.65;11.00;;;5.00;94.00;;;;;;5022316;28;20052;-77
2021/03/23 05:28:10;;;;;;;15.88;10.40;;;4.90;93.90;;;;;;5021502;28;20038;-77
2021/03/23 05:30:37;;;;;;;17.45;10.98;;;5.00;94.00;;;;;;5022718;28;20046;-77
2021/03/23 05:33:03;;;;;;;18.88;12.02;;;4.90;94.00;;;;;;5021047;28;20053;-77
2021/03/23 05:35:29;;;;;;;18.92;11.00;;;4.90;93.90;;;;;;5019457;28;20430;-77
2021/03/23 05:37:55;;;;;;;22.08;12.07;;;4.90;94.00;;;;;;5021221;28;20076;-77
2021/03/23 05:40:35;;;;;;;19.58;13.88;;;4.90;94.00;;;;;;5022011;28;20428;-77
2021/03/23 05:43:04;;;;;;;18.15;12.43;;;4.90;93.90;;;;;;5027817;28;20389;-76
2021/03/23 05:45:38;;;;;;;17.63;11.40;;;4.90;93.90;;;;;;5036108;28;20450;-76
2021/03/23 05:48:25;;;;;;;14.55;9.50;;;4.90;93.90;;;;;;5028371;28;20057;-77
2021/03/23 05:51:06;;;;;;;16.55;11.30;;;4.90;93.90;;;;;;5016780;28;20523;-77
2021/03/23 05:53:42;;;;;;;16.77;11.05;;;4.90;93.90;;;;;;5023082;28;20038;-77
2021/03/23 05:56:12;;;;;;;15.73;10.30;;;4.90;93.90;;;;;;5018250;28;20054;-77
2021/03/23 05:59:01;;;;;;;20.20;11.52;;;4.90;93.80;;;;;;5022576;28;20036;-78
2021/03/23 06:01:55;;;;;;;15.45;9.93;;;5.00;93.80;;;;;;5016386;28;20132;-78
2021/03/23 06:04:50;;;;;;;18.27;12.07;;;4.90;93.80;;;;;;5016286;28;20037;-78
2021/03/23 06:07:20;;;;;;;16.50;11.13;;;4.80;93.80;;;;;;5015198;28;20057;-78
2021/03/23 06:09:47;;;;;;;18.02;11.63;;;4.90;93.90;;;;;;5027213;28;20045;-77
2021/03/23 06:12:16;;;;;;;17.85;11.55;;;4.90;93.90;;;;;;5018515;28;20120;-76
2021/03/23 06:15:08;;;;;;;17.48;10.93;;;4.90;93.90;;;;;;5020367;28;20126;-76
2021/03/23 06:17:34;;;;;;;16.75;10.77;;;5.00;93.90;;;;;;5013073;28;20044;-77
2021/03/23 06:20:13;;;;;;;18.42;11.20;;;5.00;93.90;;;;;;5019801;28;20041;-76
2021/03/23 06:22:57;;;;;;;19.00;11.75;;;5.10;93.90;;;;;;5013125;28;20046;-77
2021/03/23 06:25:31;;;;;;;16.90;11.38;;;5.10;93.80;;;;;;5035545;28;20040;-79
2021/03/23 06:28:14;;;;;;;14.25;10.70;;;5.10;93.80;;;;;;5024053;28;20049;-77
2021/03/23 06:31:05;;;;;;;16.67;10.45;;;5.20;93.80;;;;;;5022989;28;20141;-77
2021/03/23 06:33:31;;;;;;;17.75;11.02;;;5.20;93.70;;;;;;5021601;28;20642;-77
2021/03/23 06:36:01;;;;;;;20.90;11.38;;;5.20;93.60;;;;;;5024911;28;20048;-76
2021/03/23 06:38:36;;;;;;;16.05;11.27;;;5.30;93.50;;;;;;5018517;28;20068;-76
2021/03/23 06:41:22;;;;;;;18.33;11.43;;;5.30;93.50;;;;;;5026832;28;20056;-77
2021/03/23 06:43:55;;;;;;;16.02;10.77;;;5.40;93.50;;;;;;5021075;28;20045;-76
2021/03/23 06:46:39;;;;;;;20.00;12.65;;;5.40;93.50;;;;;;5020750;28;20382;-76
2021/03/23 06:49:27;;;;;;;19.65;11.45;;;5.60;93.50;;;;;;5015752;28;20045;-76
2021/03/23 06:51:57;;;;;;;22.25;12.13;;;5.60;93.40;;;;;;5040140;28;20099;-76
2021/03/23 06:54:24;;;;;;;17.23;12.52;;;5.70;93.40;;;;;;5019682;28;20148;-76
2021/03/23 06:57:11;;;;;;;21.85;12.57;;;5.80;93.40;;;;;;5020746;28;20880;-77
2021/03/23 06:59:56;;;;;;;17.67;11.98;;;5.90;93.30;;;;;;5012860;28;20148;-76
2021/03/23 07:02:47;;;;;;;17.40;12.07;;;6.00;93.10;;;;;;5018645;28;20464;-77
2021/03/23 07:05:25;;;;;;;21.00;12.30;;;6.20;93.10;;;;;;5013861;28;20146;-77
2021/03/23 07:08:01;;;;;;;19.13;12.63;;;6.20;92.90;;;;;;5014081;28;20042;-77
2021/03/23 07:10:34;;;;;;;25.83;14.05;;;6.30;92.80;;;;;;5023795;28;20042;-77
2021/03/23 07:13:01;;;;;;;20.55;13.63;;;6.30;92.80;;;;;;5014868;28;20274;-77
2021/03/23 07:15:33;;;;;;;25.23;14.85;;;6.40;92.70;;;;;;5022149;28;20050;-77
2021/03/23 07:18:12;;;;;;;25.92;15.43;;;6.40;92.60;;;;;;5040322;28;20405;-77
2021/03/23 07:20:40;;;;;;;23.13;14.57;;;6.50;92.60;;;;;;5018759;28;20041;-77
2021/03/23 07:23:44;;;;;;;23.42;16.23;;;6.50;92.60;;;;;;5013721;28;20042;-77
2021/03/23 07:26:23;;;;;;;17.83;13.70;;;6.60;92.50;;;;;;5014255;28;20385;-77
2021/03/23 07:28:49;;;;;;;22.30;15.13;;;6.60;92.50;;;;;;5016249;28;20627;-77
2021/03/23 07:31:20;;;;;;;24.00;16.45;;;6.70;92.50;;;;;;5022161;28;20034;-78
2021/03/23 07:34:03;;;;;;;31.38;19.38;;;6.80;92.40;;;;;;5011908;28;20157;-77
2021/03/23 07:36:39;;;;;;;33.42;20.50;;;6.90;92.50;;;;;;5018809;28;20395;-77
2021/03/23 07:39:30;;;;;;;29.77;20.67;;;7.00;92.30;;;;;;5012489;28;20128;-78
2021/03/23 07:42:05;;;;;;;29.15;20.15;;;7.20;92.20;;;;;;5022360;28;20409;-77
2021/03/23 07:44:47;;;;;;;28.67;19.50;;;7.20;92.40;;;;;;5016477;28;20048;-78
2021/03/23 07:47:38;;;;;;;30.13;20.30;;;7.30;92.00;;;;;;5017725;28;20065;-77
2021/03/23 07:50:13;;;;;;;32.88;20.40;;;7.40;91.80;;;;;;4977108;28;20125;-77
2021/03/23 07:52:50;;;;;;;;;;;7.50;92.00;;;;;;4981118;28;20476;-77
2021/03/23 07:55:22;;;;;;;34.55;22.70;;;7.50;91.60;;;;;;4988800;28;19921;-77
2021/03/23 07:58:07;;;;;;;38.75;23.38;;;7.60;91.90;;;;;;4983638;28;20039;-77
2021/03/23 08:01:15;;;;;;;34.63;22.83;;;7.70;91.60;;;;;;4982427;28;20088;-77
2021/03/23 08:04:03;;;;;;;34.92;23.55;;;7.80;91.70;;;;;;4980106;28;20219;-77
2021/03/23 08:06:45;;;;;;;33.33;25.20;;;7.90;91.70;;;;;;4979725;28;20038;-77
2021/03/23 08:09:36;;;;;;;38.15;25.20;;;8.00;91.80;;;;;;4976919;28;20414;-77
2021/03/23 08:12:34;;;;;;;37.35;23.42;;;8.10;91.60;;;;;;4992301;28;20049;-77
2021/03/23 08:15:14;;;;;;;32.67;23.98;;;8.20;90.80;;;;;;4975114;28;20069;-77
2021/03/23 08:17:48;;;;;;;34.85;23.77;;;8.30;90.70;;;;;;4969933;28;20080;-77
2021/03/23 08:20:29;;;;;;;41.58;26.42;;;8.30;90.80;;;;;;4978118;28;20043;-77
2021/03/23 08:23:24;;;;;;;39.03;26.38;;;8.30;90.60;;;;;;4980107;28;20163;-78
2021/03/23 08:26:06;;;;;;;37.35;25.42;;;8.40;90.30;;;;;;4973506;28;20451;-78
2021/03/23 08:28:40;;;;;;;36.17;26.10;;;8.40;90.50;;;;;;4986750;28;20056;-78
2021/03/23 08:31:33;;;;;;;35.10;24.17;;;8.50;90.40;;;;;;4982121;28;20038;-78
2021/03/23 08:34:24;;;;;;;38.13;26.10;;;8.70;90.20;;;;;;4982163;28;20064;-77
2021/03/23 08:37:23;;;;;;;38.33;27.05;;;8.70;89.30;;;;;;4979828;28;20703;-77
2021/03/23 08:39:52;;;;;;;37.10;26.17;;;8.80;89.60;;;;;;4981436;28;20055;-77
2021/03/23 08:42:22;;;;;;;42.20;28.73;;;8.80;89.70;;;;;;4982869;28;20062;-77
2021/03/23 08:44:57;;;;;;;38.55;26.13;;;8.80;89.50;;;;;;4980053;28;20109;-77
2021/03/23 08:47:35;;;;;;;36.83;27.88;;;8.90;88.90;;;;;;4981238;28;20043;-77
2021/03/23 08:50:18;;;;;;;36.05;24.95;;;9.00;88.70;;;;;;4987001;28;20440;-78
2021/03/23 08:52:51;;;;;;;36.00;25.00;;;9.10;88.20;;;;;;4983703;28;20058;-77
2021/03/23 08:55:32;;;;;;;35.90;25.60;;;9.00;87.60;;;;;;4985173;28;20038;-77
2021/03/23 08:58:09;;;;;;;37.33;26.30;;;9.00;87.20;;;;;;4971766;28;20051;-77
2021/03/23 09:00:34;;;;;;;33.20;25.33;;;9.10;87.70;;;;;;4981210;28;20070;-77
2021/03/23 09:03:21;;;;;;;37.05;26.17;;;9.20;87.20;;;;;;4977421;28;20163;-77
2021/03/23 09:05:51;;;;;;;33.05;24.15;;;9.40;87.10;;;;;;4984143;28;20063;-77
2021/03/23 09:08:30;;;;;;;35.30;24.77;;;9.50;85.90;;;;;;4982858;28;20034;-76
2021/03/23 09:11:01;;;;;;;34.65;25.27;;;9.60;86.00;;;;;;4987127;28;20129;-77
2021/03/23 09:13:36;;;;;;;36.05;24.58;;;9.70;85.90;;;;;;4986903;28;20079;-77
2021/03/23 09:16:37;;;;;;;33.28;24.80;;;9.80;85.50;;;;;;4980958;28;20038;-76
2021/03/23 09:19:07;;;;;;;33.22;25.00;;;10.00;83.90;;;;;;4978652;28;20085;-77
2021/03/23 09:21:52;;;;;;;34.40;25.65;;;10.00;83.30;;;;;;4983387;28;20038;-78
2021/03/23 09:24:30;;;;;;;34.90;25.92;;;10.00;82.00;;;;;;4988424;28;20106;-79
2021/03/23 09:26:57;;;;;;;37.65;26.42;;;9.90;82.00;;;;;;4988697;28;20083;-79
2021/03/23 09:29:35;;;;;;;29.90;25.15;;;9.90;84.00;;;;;;4986034;28;20038;-78
2021/03/23 09:32:12;;;;;;;31.83;24.17;;;10.20;83.60;;;;;;4986268;28;20141;-78
2021/03/23 09:35:08;;;;;;;28.05;22.65;;;10.30;82.70;;;;;;4981605;28;20636;-78
2021/03/23 09:37:43;;;;;;;31.63;24.15;;;10.30;80.00;;;;;;4978741;28;20042;-78
2021/03/23 09:40:35;;;;;;;;;;;10.50;80.50;;;;;;4982429;28;20046;-78
2021/03/23 09:43:03;;;;;;;31.45;24.05;;;10.60;79.70;;;;;;4980558;28;19957;-77
2021/03/23 09:45:56;;;;;;;29.77;23.40;;;10.70;80.50;;;;;;4979580;28;20050;-77
2021/03/23 09:48:54;;;;;;;26.50;22.73;;;10.80;78.90;;;;;;4999551;28;20506;-76
2021/03/23 09:51:20;;;;;;;30.23;23.42;;;10.70;76.50;;;;;;5017707;28;20044;-77
2021/03/23 09:53:45;;;;;;;25.00;22.27;;;10.80;77.50;;;;;;5028089;28;20481;-77
2021/03/23 09:56:19;;;;;;;26.25;23.40;;;10.70;75.60;;;;;;5017837;28;20048;-78
2021/03/23 09:58:46;;;;;;;28.45;23.30;;;10.60;76.90;;;;;;5025486;28;20450;-77
2021/03/23 10:01:21;;;;;;;30.13;22.45;;;10.70;76.20;;;;;;5024570;28;20038;-77
2021/03/23 10:03:49;;;;;;;28.85;22.92;;;10.50;76.00;;;;;;5020684;28;20056;-77
2021/03/23 10:06:28;;;;;;;28.65;22.83;;;10.40;77.20;;;;;;5017368;28;20057;-77
2021/03/23 10:09:02;;;;;;;29.17;23.63;;;10.50;77.10;;;;;;5026184;28;20053;-77
2021/03/23 10:11:34;;;;;;;;;;;10.50;76.80;;;;;;5020229;28;20050;-77
2021/03/23 10:14:01;;;;;;;26.98;24.13;;;10.40;76.40;;;;;;5025476;28;19923;-77
2021/03/23 10:16:31;;;;;;;33.00;24.17;;;10.50;76.70;;;;;;5015118;28;20069;-77
2021/03/23 10:19:11;;;;;;;33.45;26.40;;;10.60;76.50;;;;;;5025111;28;20054;-78
2021/03/23 10:21:44;;;;;;;30.63;25.73;;;10.60;74.70;;;;;;5014136;28;20049;-77
2021/03/23 10:24:25;;;;;;;30.20;25.63;;;10.50;76.70;;;;;;5023910;28;20409;-78
2021/03/23 10:26:53;;;;;;;34.35;26.77;;;10.70;77.50;;;;;;5024252;28;20516;-77
2021/03/23 10:29:25;;;;;;;34.05;25.98;;;10.80;77.00;;;;;;5024858;28;20045;-77
2021/03/23 10:31:56;;;;;;;30.52;26.60;;;10.90;76.30;;;;;;5035581;28;20486;-77
2021/03/23 10:34:27;;;;;;;33.67;26.02;;;10.90;75.90;;;;;;5038659;28;20069;-77
2021/03/23 10:36:57;;;;;;;31.45;26.77;;;11.10;76.00;;;;;;5021997;28;20053;-78
2021/03/23 10:39:46;;;;;;;30.67;25.17;;;11.20;76.20;;;;;;5037714;28;20038;-78
2021/03/23 10:42:34;;;;;;;31.85;26.83;;;11.20;74.60;;;;;;5020313;28;20045;-78
2021/03/23 10:45:23;;;;;;;33.28;26.52;;;11.30;75.10;;;;;;5026078;28;20057;-78
2021/03/23 10:48:05;;;;;;;28.98;25.98;;;11.40;74.70;;;;;;5023608;28;20068;-76
2021/03/23 10:50:33;;;;;;;32.50;26.58;;;11.60;74.40;;;;;;5034970;28;20075;-78
2021/03/23 10:53:21;;;;;;;35.42;27.45;;;11.70;75.10;;;;;;5021116;28;20049;-77
2021/03/23 10:55:50;;;;;;;35.45;27.05;;;11.70;72.00;;;;;;5025598;28;20042;-78
2021/03/23 10:58:22;;;;;;;31.80;27.38;;;11.60;73.90;;;;;;5025797;28;20505;-78
2021/03/23 11:01:20;;;;;;;34.30;28.95;;;11.50;74.50;;;;;;5032908;28;20057;-79
2021/03/23 11:03:47;;;;;;;35.47;30.25;;;11.60;71.20;;;;;;5023627;28;20140;-79
2021/03/23 11:06:34;;;;;;;37.67;30.05;;;11.60;74.30;;;;;;5042148;28;20057;-79
2021/03/23 11:09:02;;;;;;;35.45;29.20;;;11.80;74.30;;;;;;5025597;28;20059;-79
2021/03/23 11:11:30;;;;;;;37.65;29.88;;;11.80;74.20;;;;;;5029725;28;20029;-79
2021/03/23 11:13:58;;;;;;;39.90;30.92;;;11.70;72.80;;;;;;5023654;28;20069;-79
2021/03/23 11:16:31;;;;;;;37.85;30.38;;;11.60;72.80;;;;;;5021139;28;20053;-79
2021/03/23 11:19:26;;;;;;;34.65;30.83;;;11.50;73.90;;;;;;5013568;28;20057;-79
2021/03/23 11:21:56;;;;;;;32.83;29.27;;;11.50;72.10;;;;;;5017751;28;20033;-78
2021/03/23 11:24:23;;;;;;;35.63;30.15;;;11.40;73.00;;;;;;5028385;28;20137;-76
2021/03/23 11:26:49;;;;;;;39.45;32.28;;;11.30;73.30;;;;;;5025848;28;20167;-77
2021/03/23 11:29:16;;;;;;;43.38;33.53;;;11.30;73.90;;;;;;5013484;28;20437;-77
2021/03/23 11:31:42;;;;;;;41.17;32.83;;;11.20;74.00;;;;;;5027256;28;20095;-78
2021/03/23 11:34:08;;;;;;;44.25;36.05;;;11.20;74.60;;;;;;5012624;28;20045;-78
2021/03/23 11:36:34;;;;;;;42.53;34.95;;;11.10;75.60;;;;;;5023628;28;20132;-78
2021/03/23 11:39:00;;;;;;;42.45;35.65;;;10.90;75.30;;;;;;5021984;28;20241;-79
2021/03/23 11:41:35;;;;;;;44.15;35.50;;;10.90;75.60;;;;;;5026997;28;20072;-79
2021/03/23 11:44:10;;;;;;;;;;;10.80;76.00;;;;;;5023861;28;20473;-79
2021/03/23 11:47:05;;;;;;;47.20;36.13;;;10.80;75.00;;;;;;5029169;28;20273;-79
2021/03/23 11:49:46;;;;;;;48.78;36.95;;;10.70;76.00;;;;;;5026681;28;20053;-80
2021/03/23 11:52:13;;;;;;;46.40;38.80;;;10.80;76.90;;;;;;5024732;28;20046;-83
2021/03/23 11:54:39;;;;;;;44.95;37.28;;;10.90;77.40;;;;;;5021252;28;20465;-77
2021/03/23 11:57:05;;;;;;;48.38;38.05;;;11.00;76.40;;;;;;5038788;28;20061;-78
2021/03/23 11:59:31;;;;;;;47.78;37.78;;;11.00;76.00;;;;;;5034237;28;20742;-78
2021/03/23 12:01:57;;;;;;;50.70;38.83;;;11.00;75.30;;;;;;5024629;28;20058;-78
2021/03/23 12:04:23;;;;;;;46.67;38.63;;;11.00;75.70;;;;;;5024680;28;20132;-77
2021/03/23 12:07:07;;;;;;;49.40;40.10;;;11.00;76.00;;;;;;5025653;28;20053;-78
2021/03/23 12:09:41;;;;;;;51.42;39.80;;;11.10;75.20;;;;;;5033375;28;20045;-76
2021/03/23 12:12:16;;;;;;;49.72;39.15;;;11.00;76.10;;;;;;5030487;28;20030;-78
2021/03/23 12:15:04;;;;;;;51.03;39.47;;;10.90;75.40;;;;;;5019262;28;20049;-77
2021/03/23 12:17:35;;;;;;;48.05;40.00;;;10.90;75.10;;;;;;5030018;28;20083;-77
2021/03/23 12:20:08;;;;;;;50.33;39.65;;;10.80;76.20;;;;;;5005614;28;20359;-77
2021/03/23 12:22:34;;;;;;;49.67;39.22;;;10.80;76.40;;;;;;5036676;28;20454;-78
2021/03/23 12:25:00;;;;;;;44.75;37.13;;;10.80;76.30;;;;;;5020688;28;20037;-78
2021/03/23 12:27:27;;;;;;;43.05;36.17;;;10.90;76.10;;;;;;5022593;28;20164;-78
2021/03/23 12:29:53;;;;;;;45.20;37.80;;;10.90;76.30;;;;;;5020580;28;20033;-77
2021/03/23 12:32:18;;;;;;;44.08;35.05;;;11.10;76.10;;;;;;5015842;28;20060;-77
2021/03/23 12:34:45;;;;;;;42.83;36.20;;;11.20;75.40;;;;;;5023186;28;20068;-75
2021/03/23 12:37:13;;;;;;;42.42;34.65;;;11.40;74.90;;;;;;5020287;28;20036;-77
2021/03/23 12:39:39;;;;;;;38.90;33.75;;;11.70;74.00;;;;;;5024666;28;20116;-78
2021/03/23 12:42:05;;;;;;;40.10;33.20;;;11.80;72.60;;;;;;5016049;28;20129;-78
2021/03/23 12:44:31;;;;;;;43.08;35.45;;;11.90;71.90;;;;;;5022308;28;20065;-79
2021/03/23 12:46:57;;;;;;;43.25;35.92;;;11.90;70.50;;;;;;5034357;28;20057;-77
2021/03/23 12:49:23;;;;;;;40.28;33.65;;;11.80;70.40;;;;;;5027011;28;20053;-78
2021/03/23 12:51:55;;;;;;;37.92;33.67;;;11.90;71.50;;;;;;5024120;28;20034;-77
2021/03/23 12:54:40;;;;;;;44.88;34.20;;;12.10;70.90;;;;;;5027077;28;20091;-77
2021/03/23 12:57:31;;;;;;;37.38;32.38;;;12.20;69.00;;;;;;5020190;28;20076;-76
2021/03/23 12:59:59;;;;;;;38.20;32.08;;;12.10;67.50;;;;;;5023712;28;20075;-81
2021/03/23 13:02:33;;;;;;;39.03;32.10;;;11.90;69.70;;;;;;5019008;28;20038;-77
2021/03/23 13:05:00;;;;;;;40.38;33.50;;;11.90;70.10;;;;;;5021169;28;20033;-79
2021/03/23 13:07:37;;;;;;;37.92;32.53;;;11.90;70.30;;;;;;5020843;28;20490;-78